Latest Coastal Weather Observations for Flinders Reef

IDQ60701

Issued at 4:51 pm EST Thursday 26 May 2016 (issued every 10 minutes, with the page automatically refreshed every 10 minutes)

About coastal observations | Map of coastal stations | Coastal observations for QLD | Marine services | Other Formats
Station Details ID: 200783 Name: FLINDERS REEF Lat: -17.72 Lon: 148.45 Height: 2.6 m
Data from the previous 72 hours. | See also: Recent months at Flinders Reef
Date/Time
EST
Temp

°C
Wind Pressure Rain
since 9am
mm
Weather Cloud Vis
km
Sea
Height
m
Swell
Dir
 
Speed
knots
Gust
knots
hPa Trend Height
m
Period
s
Dir
26/04:30pm 26.8 E 5 7 1013.3 - - - - - - - - -
26/04:24pm 27.0 E 5 - 1013.2 - - - - - - - - -
26/04:00pm 26.9 E 5 6 1013.4 - - - - - - - - -
26/03:30pm 26.9 E 5 6 1013.6 - - - - - - - - -
26/03:24pm 27.3 E 5 - 1013.5 - - - - - - - - -
26/03:00pm 26.8 E 7 8 1013.6 - - - - - - - - -
26/02:30pm 27.4 ENE 8 9 1013.6 - - - - - - - - -
26/02:24pm 27.2 ENE 8 - 1013.6 - - - - - - - - -
26/02:00pm 27.3 E 8 9 1013.9 - - - - - - - - -
26/01:30pm 27.5 E 8 10 1014.0 - - - - - - - - -
26/01:24pm 27.5 E 8 - 1013.9 - - - - - - - - -
26/01:00pm 27.5 E 9 11 1014.2 - - - - - - - - -
26/12:30pm 27.2 CALM 0 3 1014.6 - - - - - - - - -
26/12:24pm 27.1 E 1 - 1014.6 - - - - - - - - -
26/12:00pm 27.3 CALM 0 3 1015.2 - - - - - - - - -
26/11:30am 26.7 E 1 3 1015.5 - - - - - - - - -
26/11:24am 26.8 E 1 - 1015.3 - - - - - - - - -
26/11:00am 26.4 E 11 12 1015.7 - - - - - - - - -
26/10:30am 25.9 E 12 14 1015.9 - - - - - - - - -
26/10:24am 26.2 E 13 - 1015.8 - - - - - - - - -
26/10:00am 25.9 ESE 13 15 1016.5 - - - - - - - - -
26/09:30am 26.0 ESE 11 13 1016.7 - - - - - - - - -
26/09:24am 26.2 ESE 12 - 1016.5 - - - - - - - - -
26/09:00am 26.3 ESE 12 14 1016.4 - - - - - - - - -
26/08:30am 26.1 ESE 11 12 1016.1 - - - - - - - - -
26/08:24am 26.0 SE 11 - 1015.9 - - - - - - - - -
26/08:00am 26.2 SE 12 14 1015.8 - - - - - - - - -
26/07:30am 26.0 ESE 10 12 1015.7 - - - - - - - - -
26/07:24am 25.7 ESE 9 - 1015.5 - - - - - - - - -
26/07:00am 26.0 ESE 11 13 1015.3 - - - - - - - - -
26/06:30am 25.9 ESE 10 12 1015.0 - - - - - - - - -
26/06:24am 25.7 ESE 10 - 1014.8 - - - - - - - - -
26/06:00am 26.1 ESE 10 12 1014.7 - - - - - - - - -
26/05:30am 25.9 E 12 14 1014.4 - - - - - - - - -
26/05:24am 25.7 E 12 - 1014.3 - - - - - - - - -
26/05:00am 25.6 E 12 14 1014.4 - - - - - - - - -
26/04:30am 26.2 E 11 13 1014.2 - - - - - - - - -
26/04:24am 25.7 ESE 11 - 1014.0 - - - - - - - - -
26/04:00am 25.9 E 12 14 1014.1 - - - - - - - - -
26/03:30am 25.8 E 11 13 1014.1 - - - - - - - - -
26/03:24am 25.7 E 11 - 1014.0 - - - - - - - - -
26/03:00am 25.6 E 11 14 1014.1 - - - - - - - - -
26/02:30am 25.7 E 12 14 1014.2 - - - - - - - - -
26/02:24am 25.7 E 12 - 1014.1 - - - - - - - - -
26/02:00am 25.7 E 13 16 1014.3 - - - - - - - - -
26/01:30am 25.8 E 12 13 1014.8 - - - - - - - - -
26/01:24am 25.9 E 12 - 1014.8 - - - - - - - - -
26/01:00am 25.8 ESE 12 14 1015.2 - - - - - - - - -
26/12:30am 25.8 E 12 14 1015.4 - - - - - - - - -
26/12:24am 25.9 E 12 - 1015.4 - - - - - - - - -
26/12:00am 25.9 E 12 13 1015.6 - - - - - - - - -
 
Date/Time
EST
Temp

°C
Wind Pressure Rain
since 9am
mm
Weather Cloud Vis
km
Sea
Height
m
Swell
Dir
 
Speed
knots
Gust
knots
hPa Trend Height
m
Period
s
Dir
25/11:30pm 26.0 E 11 13 1015.7 - - - - - - - - -
25/11:24pm 25.9 E 11 - 1015.7 - - - - - - - - -
25/11:00pm 25.8 E 12 14 1016.0 - - - - - - - - -
25/10:30pm 25.9 ESE 11 14 1016.2 - - - - - - - - -
25/10:24pm 26.1 ESE 11 - 1016.2 - - - - - - - - -
25/10:00pm 25.6 ESE 12 14 1016.3 - - - - - - - - -
25/09:30pm 26.2 ESE 12 15 1016.0 - - - - - - - - -
25/09:24pm 25.7 ESE 12 - 1016.0 - - - - - - - - -
25/09:00pm 25.8 ESE 13 15 1015.9 - - - - - - - - -
25/08:30pm 25.9 ESE 1 3 1015.6 - - - - - - - - -
25/08:24pm 25.8 CALM 0 - 1015.4 - - - - - - - - -
25/08:00pm 25.9 CALM 0 3 1015.3 - - - - - - - - -
25/07:30pm 25.8 ESE 1 3 1015.2 - - - - - - - - -
25/07:24pm 25.9 ESE 1 - 1015.1 - - - - - - - - -
25/07:00pm 25.8 ESE 1 3 1015.0 - - - - - - - - -
25/06:30pm 25.8 ESE 1 3 1014.7 - - - - - - - - -
25/06:24pm 25.8 ESE 1 - 1014.6 - - - - - - - - -
25/06:00pm 25.8 ESE 13 15 1014.4 - - - - - - - - -
25/05:30pm 26.1 ESE 12 14 1014.2 - - - - - - - - -
25/05:24pm 25.9 ESE 13 - 1014.1 - - - - - - - - -
25/05:00pm 26.0 ESE 12 14 1014.0 - - - - - - - - -
25/04:30pm 26.2 ESE 12 14 1013.6 - - - - - - - - -
25/04:24pm 26.1 ESE 13 - 1013.3 - - - - - - - - -
25/04:00pm 26.0 ESE 14 15 1013.0 - - - - - - - - -
25/03:30pm 26.0 ESE 15 17 1012.8 - - - - - - - - -
25/03:24pm 25.9 ESE 15 - 1012.8 - - - - - - - - -
25/03:00pm 26.2 ESE 13 15 1013.3 - - - - - - - - -
25/02:30pm 26.1 ESE 14 16 1013.4 - - - - - - - - -
25/02:24pm 26.1 ESE 13 - 1013.2 - - - - - - - - -
25/02:00pm 26.2 ESE 13 14 1013.6 - - - - - - - - -
25/01:30pm 25.9 SE 12 15 1013.7 - - - - - - - - -
25/01:24pm 26.1 SE 11 - 1014.2 - - - - - - - - -
25/01:00pm 26.1 ESE 13 15 1014.4 - - - - - - - - -
25/12:30pm 26.1 ESE 11 13 1015.1 - - - - - - - - -
25/12:24pm 26.0 ESE 11 - 1015.2 - - - - - - - - -
25/12:00pm 26.2 ESE 10 12 1015.8 - - - - - - - - -
25/11:30am 26.1 ESE 10 12 1016.1 - - - - - - - - -
25/11:24am 26.2 ESE 10 - 1015.9 - - - - - - - - -
25/11:00am 26.1 ESE 12 14 1015.7 - - - - - - - - -
25/10:30am 26.0 ESE 13 15 1015.8 - - - - - - - - -
25/10:24am 26.1 ESE 14 - 1015.7 - - - - - - - - -
25/10:00am 26.0 ESE 13 15 1016.2 - - - - - - - - -
25/09:30am 26.1 ESE 15 17 1015.6 - - - - - - - - -
25/09:24am 26.0 ESE 14 - 1015.8 - - - - - - - - -
25/09:00am 26.1 ESE 13 15 1016.2 - - - - - - - - -
25/08:30am 25.9 ESE 13 16 1016.0 - - - - - - - - -
25/08:24am 25.8 ESE 14 - 1015.6 - - - - - - - - -
25/08:00am 25.7 E 14 17 1015.3 - - - - - - - - -
25/07:30am 25.8 E 12 14 1015.5 - - - - - - - - -
25/07:24am 25.9 E 12 - 1015.4 - - - - - - - - -
25/07:00am 25.8 E 13 15 1014.9 - - - - - - - - -
25/06:30am 25.7 E 14 16 1014.6 - - - - - - - - -
25/06:24am 25.8 E 15 - 1014.4 - - - - - - - - -
25/06:00am 25.6 E 14 17 1014.3 - - - - - - - - -
25/05:30am 25.6 E 15 17 1013.9 - - - - - - - - -
25/05:24am 25.7 E 15 - 1013.8 - - - - - - - - -
25/05:00am 25.7 ESE 13 15 1014.1 - - - - - - - - -
25/04:30am 25.8 ESE 14 16 1014.0 - - - - - - - - -
25/04:24am 25.8 ESE 14 - 1014.0 - - - - - - - - -
25/04:00am 25.6 ESE 13 16 1014.3 - - - - - - - - -
25/03:30am 25.8 E 13 16 1014.4 - - - - - - - - -
25/03:24am 26.0 E 13 - 1014.4 - - - - - - - - -
25/03:00am 25.7 E 15 17 1014.3 - - - - - - - - -
25/02:30am 25.8 E 15 17 1014.7 - - - - - - - - -
25/02:24am 25.8 E 16 - 1014.6 - - - - - - - - -
25/02:00am 25.8 E 15 17 1015.1 - - - - - - - - -
25/01:30am 25.8 ESE 15 17 1015.3 - - - - - - - - -
25/01:24am 25.8 ESE 16 - 1015.2 - - - - - - - - -
25/01:00am 26.0 ESE 15 19 1015.4 - - - - - - - - -
25/12:30am 25.9 E 17 19 1015.5 - - - - - - - - -
25/12:24am 25.9 E 17 - 1015.4 - - - - - - - - -
25/12:00am 26.1 ESE 17 19 1015.6 - - - - - - - - -
 
Date/Time
EST
Temp

°C
Wind Pressure Rain
since 9am
mm
Weather Cloud Vis
km
Sea
Height
m
Swell
Dir
 
Speed
knots
Gust
knots
hPa Trend Height
m
Period
s
Dir
24/11:30pm 26.2 ESE 16 18 1015.8 - - - - - - - - -
24/11:24pm 25.9 ESE 16 - 1015.7 - - - - - - - - -
24/11:00pm 26.3 ESE 16 19 1016.1 - - - - - - - - -
24/10:30pm 26.0 E 15 18 1016.4 - - - - - - - - -
24/10:24pm 26.1 E 15 - 1016.2 - - - - - - - - -
24/10:00pm 26.2 ESE 16 18 1016.5 - - - - - - - - -
24/09:30pm 26.3 ESE 16 20 1016.6 - - - - - - - - -
24/09:24pm 26.1 ESE 16 - 1016.5 - - - - - - - - -
24/09:00pm 26.1 ESE 17 19 1016.5 - - - - - - - - -
24/08:30pm 26.2 ESE 16 18 1016.4 - - - - - - - - -
24/08:24pm 26.1 ESE 16 - 1016.2 - - - - - - - - -
24/08:00pm 26.4 ESE 16 18 1016.1 - - - - - - - - -
24/07:30pm 26.2 ESE 16 18 1015.9 - - - - - - - - -
24/07:24pm 26.1 ESE 16 - 1015.7 - - - - - - - - -
24/07:00pm 26.3 ESE 16 17 1015.6 - - - - - - - - -
24/06:30pm 26.3 ESE 16 19 1015.1 - - - - - - - - -
24/06:24pm 26.3 ESE 16 - 1014.9 - - - - - - - - -
24/06:00pm 26.3 ESE 15 18 1015.0 - - - - - - - - -
24/05:30pm 26.1 ESE 16 18 1014.5 - - - - - - - - -
24/05:24pm 26.2 ESE 16 - 1014.4 - - - - - - - - -
24/05:00pm 26.4 ESE 15 18 1014.4 - - - - - - - - -
24/04:30pm 26.3 ESE 14 17 1014.0 - - - - - - - - -
24/04:24pm 26.3 ESE 13 - 1014.1 - - - - - - - - -
24/04:00pm 26.3 ESE 15 16 1013.9 - - - - - - - - -
24/03:30pm 26.4 ESE 14 16 1014.0 - - - - - - - - -
24/03:24pm 26.3 ESE 15 - 1013.8 - - - - - - - - -
24/03:00pm 26.3 ESE 14 17 1014.0 - - - - - - - - -
24/02:30pm 26.5 ESE 14 16 1014.1 - - - - - - - - -
24/02:24pm 26.3 ESE 14 - 1014.0 - - - - - - - - -
24/02:00pm 26.2 ESE 13 16 1014.3 - - - - - - - - -
24/01:30pm 26.3 ESE 13 15 1014.6 - - - - - - - - -
24/01:24pm 26.5 ESE 14 - 1014.6 - - - - - - - - -
24/01:00pm 26.4 ESE 14 16 1015.1 - - - - - - - - -
24/12:30pm 26.4 SE 15 17 1015.3 - - - - - - - - -
24/12:24pm 26.5 SE 15 - 1015.2 - - - - - - - - -
24/12:00pm 26.3 SE 16 18 1015.6 - - - - - - - - -
24/11:30am 26.7 ESE 15 17 1016.1 - - - - - - - - -
24/11:24am 26.4 ESE 15 - 1016.0 - - - - - - - - -
24/11:00am 26.4 ESE 15 17 1016.2 - - - - - - - - -
24/10:30am 26.5 ESE 16 18 1016.4 - - - - - - - - -
24/10:24am 26.4 ESE 16 - 1016.4 - - - - - - - - -
24/10:00am 26.3 ESE 16 19 1016.6 - - - - - - - - -
24/09:30am 26.2 ESE 17 20 1016.3 - - - - - - - - -
24/09:24am 26.3 ESE 17 - 1016.3 - - - - - - - - -
24/09:00am 26.5 ESE 16 20 1016.3 - - - - - - - - -
24/08:30am 26.3 ESE 18 21 1015.9 - - - - - - - - -
24/08:24am 26.3 ESE 19 - 1015.7 - - - - - - - - -
24/08:00am 25.9 E 19 22 1015.3 - - - - - - - - -
24/07:30am 26.1 ESE 20 22 1015.1 - - - - - - - - -
24/07:24am 25.9 ESE 19 - 1015.0 - - - - - - - - -
24/07:00am 26.0 E 20 22 1015.1 - - - - - - - - -
24/06:30am 25.9 ESE 19 22 1014.8 - - - - - - - - -
24/06:24am 26.1 ESE 19 - 1014.6 - - - - - - - - -
24/06:00am 26.1 ESE 20 24 1014.6 - - - - - - - - -
24/05:30am 25.9 ESE 20 23 1014.5 - - - - - - - - -
24/05:24am 25.9 ESE 20 - 1014.4 - - - - - - - - -
24/05:00am 26.0 ESE 20 24 1014.3 - - - - - - - - -
24/04:30am 25.9 ESE 20 23 1014.1 - - - - - - - - -
24/04:24am 25.9 ESE 20 - 1014.1 - - - - - - - - -
24/04:00am 26.1 ESE 20 23 1014.4 - - - - - - - - -
24/03:30am 25.8 ESE 20 22 1014.5 - - - - - - - - -
24/03:24am 25.9 ESE 19 - 1014.6 - - - - - - - - -
24/03:00am 26.0 ESE 21 23 1014.8 - - - - - - - - -
24/02:30am 26.0 ESE 22 25 1014.5 - - - - - - - - -
24/02:24am 25.9 SE 18 - 1014.9 - - - - - - - - -
24/02:00am 26.2 ESE 21 24 1014.9 - - - - - - - - -
24/01:30am 26.1 ESE 20 23 1015.6 - - - - - - - - -
24/01:24am 26.0 ESE 19 - 1015.7 - - - - - - - - -
24/01:00am 26.4 ESE 19 21 1016.2 - - - - - - - - -
24/12:30am 26.3 ESE 19 22 1016.3 - - - - - - - - -
24/12:24am 26.2 ESE 19 - 1016.3 - - - - - - - - -
24/12:00am 26.4 ESE 20 23 1016.3 - - - - - - - - -
 
Date/Time
EST
Temp

°C
Wind Pressure Rain
since 9am
mm
Weather Cloud Vis
km
Sea
Height
m
Swell
Dir
 
Speed
knots
Gust
knots
hPa Trend Height
m
Period
s
Dir
23/11:30pm 26.2 ESE 20 22 1016.3 - - - - - - - - -
23/11:24pm 26.3 ESE 20 - 1016.2 - - - - - - - - -
23/11:00pm 26.0 ESE 19 22 1016.5 - - - - - - - - -
23/10:30pm 26.2 ESE 19 23 1016.3 - - - - - - - - -
23/10:24pm 25.5 ESE 18 - 1016.4 - - - - - - - - -
23/10:00pm 25.9 ESE 20 23 1016.2 - - - - - - - - -
23/09:30pm 26.0 ESE 19 22 1016.4 - - - - - - - - -
23/09:24pm 25.8 ESE 19 - 1016.3 - - - - - - - - -
23/09:00pm 25.9 E 22 25 1016.0 - - - - - - - - -
23/08:30pm 26.0 ESE 21 23 1016.1 - - - - - - - - -
23/08:24pm 26.0 ESE 21 - 1016.0 - - - - - - - - -
23/08:00pm 25.9 ESE 21 24 1016.1 - - - - - - - - -
23/07:30pm 26.2 ESE 20 23 1015.9 - - - - - - - - -
23/07:24pm 26.5 ESE 19 - 1015.4 - - - - - - - - -
23/07:00pm 26.5 ESE 17 19 1015.6 - - - - - - - - -
23/06:30pm 26.4 ESE 17 19 1015.3 - - - - - - - - -
23/06:24pm 26.3 ESE 17 - 1015.2 - - - - - - - - -
23/06:00pm 26.3 ESE 18 22 1014.9 - - - - - - - - -
23/05:30pm 26.2 ESE 18 21 1014.4 - - - - - - - - -
23/05:24pm 26.4 ESE 18 - 1014.4 - - - - - - - - -
23/05:00pm 26.5 ESE 15 19 1014.9 - - - - - - - - -

Other Formats:

Comma delimited format used in spreadsheet applications
http://www.bom.gov.au/fwo/IDQ60701/IDQ60701.94290.axf

JavaScript Object Notation format (JSON) in row-major order
http://www.bom.gov.au/fwo/IDQ60701/IDQ60701.94290.json